Terminal Aerodrome Forecast
Issued by NWS

Home | Current Version | Previous Version | Graphics & Text | Print | Product List | Glossary On
Versions: 1 2 3 4 5 6 7 8 9 10 11 12 13 14 15 16 17 18 19 20 21
000
FTUS43 KTOP 251100
TAFFOE
TAF
KFOE 251126Z 2512/2612 00000KT 1/4SM FG OVC002
      TEMPO 2512/2516 2SM BR OVC004
     FM251700 02013KT P6SM SCT020 OVC120
     FM252200 01016G25KT P6SM -RA SCT025 OVC050
     FM260500 35009KT P6SM SCT050 BKN100=

USA.gov is the U.S. government's official web portal to all federal, state and local government web resources and services.